sensor_id;sensor_type;location;lat;lon;timestamp;P1;durP1;ratioP1;P2;durP2;ratioP2
64405;SDS011;50730;48.628;8.994;2023-09-07T00:00:33;4.75;;;2.60;;
64405;SDS011;50730;48.628;8.994;2023-09-07T00:03:01;4.40;;;2.80;;
64405;SDS011;50730;48.628;8.994;2023-09-07T00:05:29;6.20;;;3.38;;
64405;SDS011;50730;48.628;8.994;2023-09-07T00:07:56;9.32;;;2.90;;
64405;SDS011;50730;48.628;8.994;2023-09-07T00:10:23;4.10;;;2.58;;
64405;SDS011;50730;48.628;8.994;2023-09-07T00:12:52;6.63;;;3.17;;
64405;SDS011;50730;48.628;8.994;2023-09-07T00:15:19;4.95;;;3.00;;
64405;SDS011;50730;48.628;8.994;2023-09-07T00:17:46;6.43;;;3.10;;
64405;SDS011;50730;48.628;8.994;2023-09-07T00:20:14;5.05;;;2.63;;
64405;SDS011;50730;48.628;8.994;2023-09-07T00:22:41;6.57;;;2.63;;
64405;SDS011;50730;48.628;8.994;2023-09-07T00:25:08;4.70;;;2.75;;
64405;SDS011;50730;48.628;8.994;2023-09-07T00:27:35;4.05;;;2.55;;
64405;SDS011;50730;48.628;8.994;2023-09-07T00:30:04;5.07;;;3.00;;
64405;SDS011;50730;48.628;8.994;2023-09-07T00:32:35;5.65;;;2.78;;
64405;SDS011;50730;48.628;8.994;2023-09-07T00:35:02;5.05;;;2.80;;
64405;SDS011;50730;48.628;8.994;2023-09-07T00:37:30;3.35;;;2.40;;
64405;SDS011;50730;48.628;8.994;2023-09-07T00:39:57;6.95;;;3.10;;
64405;SDS011;50730;48.628;8.994;2023-09-07T00:42:24;5.18;;;2.50;;
64405;SDS011;50730;48.628;8.994;2023-09-07T00:44:51;5.57;;;2.40;;
64405;SDS011;50730;48.628;8.994;2023-09-07T00:47:20;4.82;;;2.95;;
64405;SDS011;50730;48.628;8.994;2023-09-07T00:49:47;3.70;;;2.83;;
64405;SDS011;50730;48.628;8.994;2023-09-07T00:52:14;5.93;;;2.47;;
64405;SDS011;50730;48.628;8.994;2023-09-07T00:54:42;5.75;;;2.67;;
64405;SDS011;50730;48.628;8.994;2023-09-07T00:57:09;3.88;;;2.65;;
64405;SDS011;50730;48.628;8.994;2023-09-07T00:59:37;4.10;;;2.70;;
64405;SDS011;50730;48.628;8.994;2023-09-07T01:02:04;6.35;;;3.00;;
64405;SDS011;50730;48.628;8.994;2023-09-07T01:04:32;7.28;;;2.75;;
64405;SDS011;50730;48.628;8.994;2023-09-07T01:07:02;6.68;;;3.03;;
64405;SDS011;50730;48.628;8.994;2023-09-07T01:09:30;3.47;;;2.65;;
64405;SDS011;50730;48.628;8.994;2023-09-07T01:11:58;3.38;;;2.40;;
64405;SDS011;50730;48.628;8.994;2023-09-07T01:14:26;5.68;;;2.50;;
64405;SDS011;50730;48.628;8.994;2023-09-07T01:16:53;3.85;;;2.47;;
64405;SDS011;50730;48.628;8.994;2023-09-07T01:19:20;3.88;;;2.70;;
64405;SDS011;50730;48.628;8.994;2023-09-07T01:21:48;3.78;;;2.70;;
64405;SDS011;50730;48.628;8.994;2023-09-07T01:24:16;4.30;;;2.60;;
64405;SDS011;50730;48.628;8.994;2023-09-07T01:26:43;5.80;;;2.90;;
64405;SDS011;50730;48.628;8.994;2023-09-07T01:29:14;5.55;;;2.70;;
64405;SDS011;50730;48.628;8.994;2023-09-07T01:31:42;6.38;;;2.92;;
64405;SDS011;50730;48.628;8.994;2023-09-07T01:34:09;4.40;;;2.90;;
64405;SDS011;50730;48.628;8.994;2023-09-07T01:36:36;5.00;;;3.13;;
64405;SDS011;50730;48.628;8.994;2023-09-07T01:39:05;3.60;;;2.42;;
64405;SDS011;50730;48.628;8.994;2023-09-07T01:41:32;4.93;;;2.75;;
64405;SDS011;50730;48.628;8.994;2023-09-07T01:47:03;6.10;;;2.67;;
64405;SDS011;50730;48.628;8.994;2023-09-07T01:49:30;3.90;;;2.40;;
64405;SDS011;50730;48.628;8.994;2023-09-07T01:51:57;9.27;;;2.88;;
64405;SDS011;50730;48.628;8.994;2023-09-07T01:54:26;3.70;;;2.60;;
64405;SDS011;50730;48.628;8.994;2023-09-07T01:56:53;4.40;;;2.80;;
64405;SDS011;50730;48.628;8.994;2023-09-07T01:59:20;4.25;;;2.60;;
64405;SDS011;50730;48.628;8.994;2023-09-07T02:01:47;6.10;;;2.70;;
64405;SDS011;50730;48.628;8.994;2023-09-07T02:04:14;4.22;;;2.55;;
64405;SDS011;50730;48.628;8.994;2023-09-07T02:06:42;4.47;;;2.30;;
64405;SDS011;50730;48.628;8.994;2023-09-07T02:09:09;3.90;;;2.60;;
64405;SDS011;50730;48.628;8.994;2023-09-07T02:11:37;5.43;;;2.60;;
64405;SDS011;50730;48.628;8.994;2023-09-07T02:14:05;6.60;;;3.03;;
64405;SDS011;50730;48.628;8.994;2023-09-07T02:16:32;4.57;;;2.70;;
64405;SDS011;50730;48.628;8.994;2023-09-07T02:19:00;3.47;;;2.47;;
64405;SDS011;50730;48.628;8.994;2023-09-07T02:21:28;3.92;;;2.40;;
64405;SDS011;50730;48.628;8.994;2023-09-07T02:23:55;18.25;;;4.32;;
64405;SDS011;50730;48.628;8.994;2023-09-07T02:29:27;5.28;;;3.10;;
64405;SDS011;50730;48.628;8.994;2023-09-07T02:31:54;6.63;;;2.90;;
64405;SDS011;50730;48.628;8.994;2023-09-07T02:34:22;6.65;;;3.10;;
64405;SDS011;50730;48.628;8.994;2023-09-07T02:36:49;4.65;;;2.50;;
64405;SDS011;50730;48.628;8.994;2023-09-07T02:39:16;5.70;;;2.60;;
64405;SDS011;50730;48.628;8.994;2023-09-07T02:41:43;4.57;;;2.70;;
64405;SDS011;50730;48.628;8.994;2023-09-07T02:44:11;3.72;;;2.40;;
64405;SDS011;50730;48.628;8.994;2023-09-07T02:46:39;3.20;;;2.42;;
64405;SDS011;50730;48.628;8.994;2023-09-07T02:49:07;6.07;;;2.67;;
64405;SDS011;50730;48.628;8.994;2023-09-07T02:51:34;3.17;;;2.40;;
64405;SDS011;50730;48.628;8.994;2023-09-07T02:54:01;8.32;;;2.90;;
64405;SDS011;50730;48.628;8.994;2023-09-07T02:56:29;4.38;;;2.67;;
64405;SDS011;50730;48.628;8.994;2023-09-07T02:58:56;6.53;;;3.20;;
64405;SDS011;50730;48.628;8.994;2023-09-07T03:01:23;4.78;;;3.10;;
64405;SDS011;50730;48.628;8.994;2023-09-07T03:03:52;4.20;;;2.67;;
64405;SDS011;50730;48.628;8.994;2023-09-07T03:06:19;7.13;;;3.50;;
64405;SDS011;50730;48.628;8.994;2023-09-07T03:08:46;6.35;;;3.13;;
64405;SDS011;50730;48.628;8.994;2023-09-07T03:11:13;6.05;;;3.42;;
64405;SDS011;50730;48.628;8.994;2023-09-07T03:13:40;4.55;;;3.10;;
64405;SDS011;50730;48.628;8.994;2023-09-07T03:16:08;4.68;;;3.10;;
64405;SDS011;50730;48.628;8.994;2023-09-07T03:18:35;5.05;;;2.75;;
64405;SDS011;50730;48.628;8.994;2023-09-07T03:21:04;6.30;;;3.25;;
64405;SDS011;50730;48.628;8.994;2023-09-07T03:23:31;4.40;;;2.63;;
64405;SDS011;50730;48.628;8.994;2023-09-07T03:25:59;4.45;;;2.60;;
64405;SDS011;50730;48.628;8.994;2023-09-07T03:28:26;5.32;;;2.88;;
64405;SDS011;50730;48.628;8.994;2023-09-07T03:30:53;5.25;;;3.58;;
64405;SDS011;50730;48.628;8.994;2023-09-07T03:33:20;4.50;;;2.92;;
64405;SDS011;50730;48.628;8.994;2023-09-07T03:35:47;8.52;;;3.05;;
64405;SDS011;50730;48.628;8.994;2023-09-07T03:38:18;4.70;;;3.15;;
64405;SDS011;50730;48.628;8.994;2023-09-07T03:40:45;5.00;;;2.80;;
64405;SDS011;50730;48.628;8.994;2023-09-07T03:43:12;6.78;;;3.28;;
64405;SDS011;50730;48.628;8.994;2023-09-07T03:45:39;5.20;;;2.72;;
64405;SDS011;50730;48.628;8.994;2023-09-07T03:48:06;5.95;;;3.25;;
64405;SDS011;50730;48.628;8.994;2023-09-07T03:50:34;4.20;;;2.78;;
64405;SDS011;50730;48.628;8.994;2023-09-07T03:53:01;4.30;;;3.22;;
64405;SDS011;50730;48.628;8.994;2023-09-07T03:55:33;5.90;;;3.35;;
64405;SDS011;50730;48.628;8.994;2023-09-07T03:58:06;5.50;;;3.15;;
64405;SDS011;50730;48.628;8.994;2023-09-07T04:00:33;4.63;;;2.85;;
64405;SDS011;50730;48.628;8.994;2023-09-07T04:03:01;4.63;;;3.17;;
64405;SDS011;50730;48.628;8.994;2023-09-07T04:05:28;4.82;;;3.17;;
64405;SDS011;50730;48.628;8.994;2023-09-07T04:07:55;7.10;;;3.47;;
64405;SDS011;50730;48.628;8.994;2023-09-07T04:10:23;6.15;;;3.20;;
64405;SDS011;50730;48.628;8.994;2023-09-07T04:12:51;6.68;;;2.92;;
64405;SDS011;50730;48.628;8.994;2023-09-07T04:15:18;5.70;;;3.60;;
64405;SDS011;50730;48.628;8.994;2023-09-07T04:17:45;5.72;;;3.38;;
64405;SDS011;50730;48.628;8.994;2023-09-07T04:20:12;6.78;;;3.50;;
64405;SDS011;50730;48.628;8.994;2023-09-07T04:22:40;4.60;;;3.22;;
64405;SDS011;50730;48.628;8.994;2023-09-07T04:25:07;7.18;;;3.65;;
64405;SDS011;50730;48.628;8.994;2023-09-07T04:27:34;5.53;;;3.20;;
64405;SDS011;50730;48.628;8.994;2023-09-07T04:30:03;5.53;;;3.42;;
64405;SDS011;50730;48.628;8.994;2023-09-07T04:32:30;5.47;;;3.40;;
64405;SDS011;50730;48.628;8.994;2023-09-07T04:34:57;9.00;;;3.22;;
64405;SDS011;50730;48.628;8.994;2023-09-07T04:37:26;4.13;;;2.65;;
64405;SDS011;50730;48.628;8.994;2023-09-07T04:39:53;4.38;;;2.95;;
64405;SDS011;50730;48.628;8.994;2023-09-07T04:45:25;5.13;;;3.10;;
64405;SDS011;50730;48.628;8.994;2023-09-07T04:47:52;5.68;;;3.22;;
64405;SDS011;50730;48.628;8.994;2023-09-07T04:50:22;5.47;;;3.40;;
64405;SDS011;50730;48.628;8.994;2023-09-07T04:52:49;5.97;;;3.03;;
64405;SDS011;50730;48.628;8.994;2023-09-07T04:55:16;5.55;;;3.20;;
64405;SDS011;50730;48.628;8.994;2023-09-07T04:57:43;5.53;;;3.42;;
64405;SDS011;50730;48.628;8.994;2023-09-07T05:00:10;5.85;;;3.55;;
64405;SDS011;50730;48.628;8.994;2023-09-07T05:02:39;8.68;;;3.50;;
64405;SDS011;50730;48.628;8.994;2023-09-07T05:05:08;4.57;;;2.83;;
64405;SDS011;50730;48.628;8.994;2023-09-07T05:07:35;5.22;;;3.30;;
64405;SDS011;50730;48.628;8.994;2023-09-07T05:10:02;4.97;;;3.42;;
64405;SDS011;50730;48.628;8.994;2023-09-07T05:12:29;8.80;;;3.83;;
64405;SDS011;50730;48.628;8.994;2023-09-07T05:14:56;8.50;;;3.75;;
64405;SDS011;50730;48.628;8.994;2023-09-07T05:17:24;8.05;;;3.95;;
64405;SDS011;50730;48.628;8.994;2023-09-07T05:19:53;8.07;;;3.67;;
64405;SDS011;50730;48.628;8.994;2023-09-07T05:22:20;7.10;;;3.40;;
64405;SDS011;50730;48.628;8.994;2023-09-07T05:24:47;6.00;;;4.10;;
64405;SDS011;50730;48.628;8.994;2023-09-07T05:27:14;8.02;;;3.83;;
64405;SDS011;50730;48.628;8.994;2023-09-07T05:29:41;6.63;;;4.10;;
64405;SDS011;50730;48.628;8.994;2023-09-07T05:32:09;8.55;;;4.10;;
64405;SDS011;50730;48.628;8.994;2023-09-07T05:34:36;7.32;;;3.80;;
64405;SDS011;50730;48.628;8.994;2023-09-07T05:37:05;5.53;;;3.35;;
64405;SDS011;50730;48.628;8.994;2023-09-07T05:39:32;6.30;;;3.60;;
64405;SDS011;50730;48.628;8.994;2023-09-07T05:41:59;13.10;;;3.90;;
64405;SDS011;50730;48.628;8.994;2023-09-07T05:47:11;7.38;;;3.97;;
64405;SDS011;50730;48.628;8.994;2023-09-07T05:49:39;6.82;;;3.70;;
64405;SDS011;50730;48.628;8.994;2023-09-07T05:52:07;7.57;;;4.55;;
64405;SDS011;50730;48.628;8.994;2023-09-07T05:54:34;8.02;;;4.00;;
64405;SDS011;50730;48.628;8.994;2023-09-07T05:57:01;6.45;;;3.85;;
64405;SDS011;50730;48.628;8.994;2023-09-07T05:59:28;7.45;;;4.25;;
64405;SDS011;50730;48.628;8.994;2023-09-07T06:01:55;6.90;;;4.53;;
64405;SDS011;50730;48.628;8.994;2023-09-07T06:04:22;7.28;;;4.00;;
64405;SDS011;50730;48.628;8.994;2023-09-07T06:06:50;7.32;;;4.50;;
64405;SDS011;50730;48.628;8.994;2023-09-07T06:09:18;6.13;;;4.50;;
64405;SDS011;50730;48.628;8.994;2023-09-07T06:11:45;10.80;;;4.47;;
64405;SDS011;50730;48.628;8.994;2023-09-07T06:14:12;6.35;;;4.55;;
64405;SDS011;50730;48.628;8.994;2023-09-07T06:16:39;9.80;;;5.43;;
64405;SDS011;50730;48.628;8.994;2023-09-07T06:19:06;9.07;;;5.35;;
64405;SDS011;50730;48.628;8.994;2023-09-07T06:21:33;10.70;;;5.88;;
64405;SDS011;50730;48.628;8.994;2023-09-07T06:24:01;9.25;;;5.72;;
64405;SDS011;50730;48.628;8.994;2023-09-07T06:26:29;9.10;;;5.88;;
64405;SDS011;50730;48.628;8.994;2023-09-07T06:28:56;8.52;;;6.05;;
64405;SDS011;50730;48.628;8.994;2023-09-07T06:31:24;11.13;;;6.65;;
64405;SDS011;50730;48.628;8.994;2023-09-07T06:33:51;9.52;;;6.05;;
64405;SDS011;50730;48.628;8.994;2023-09-07T06:36:18;10.98;;;6.20;;
64405;SDS011;50730;48.628;8.994;2023-09-07T06:38:45;8.77;;;5.53;;
64405;SDS011;50730;48.628;8.994;2023-09-07T06:41:12;13.23;;;6.13;;
64405;SDS011;50730;48.628;8.994;2023-09-07T06:43:41;11.00;;;5.10;;
64405;SDS011;50730;48.628;8.994;2023-09-07T06:46:08;8.23;;;5.00;;
64405;SDS011;50730;48.628;8.994;2023-09-07T06:48:36;12.80;;;4.88;;
64405;SDS011;50730;48.628;8.994;2023-09-07T06:51:03;8.15;;;5.22;;
64405;SDS011;50730;48.628;8.994;2023-09-07T06:53:30;9.35;;;5.70;;
64405;SDS011;50730;48.628;8.994;2023-09-07T06:55:58;11.27;;;5.90;;
64405;SDS011;50730;48.628;8.994;2023-09-07T06:58:25;8.80;;;5.72;;
64405;SDS011;50730;48.628;8.994;2023-09-07T07:00:56;10.02;;;5.38;;
64405;SDS011;50730;48.628;8.994;2023-09-07T07:03:26;10.75;;;5.28;;
64405;SDS011;50730;48.628;8.994;2023-09-07T07:05:53;10.27;;;5.25;;
64405;SDS011;50730;48.628;8.994;2023-09-07T07:08:20;9.00;;;5.25;;
64405;SDS011;50730;48.628;8.994;2023-09-07T07:10:47;8.43;;;4.60;;
64405;SDS011;50730;48.628;8.994;2023-09-07T07:13:15;10.00;;;5.00;;
64405;SDS011;50730;48.628;8.994;2023-09-07T07:15:42;8.75;;;5.07;;
64405;SDS011;50730;48.628;8.994;2023-09-07T07:18:10;10.73;;;5.47;;
64405;SDS011;50730;48.628;8.994;2023-09-07T07:20:38;7.95;;;5.15;;
64405;SDS011;50730;48.628;8.994;2023-09-07T07:23:05;7.47;;;5.10;;
64405;SDS011;50730;48.628;8.994;2023-09-07T07:25:32;7.15;;;5.18;;
64405;SDS011;50730;48.628;8.994;2023-09-07T07:27:59;8.90;;;4.63;;
64405;SDS011;50730;48.628;8.994;2023-09-07T07:30:30;6.85;;;4.63;;
64405;SDS011;50730;48.628;8.994;2023-09-07T07:32:57;7.45;;;5.28;;
64405;SDS011;50730;48.628;8.994;2023-09-07T07:35:26;6.80;;;4.25;;
64405;SDS011;50730;48.628;8.994;2023-09-07T07:37:53;6.13;;;4.53;;
64405;SDS011;50730;48.628;8.994;2023-09-07T07:40:20;6.80;;;4.32;;
64405;SDS011;50730;48.628;8.994;2023-09-07T07:42:47;11.07;;;4.57;;
64405;SDS011;50730;48.628;8.994;2023-09-07T07:45:14;6.93;;;4.45;;
64405;SDS011;50730;48.628;8.994;2023-09-07T07:50:50;6.95;;;4.88;;
64405;SDS011;50730;48.628;8.994;2023-09-07T07:53:17;6.85;;;4.68;;
64405;SDS011;50730;48.628;8.994;2023-09-07T07:55:44;7.57;;;4.18;;
64405;SDS011;50730;48.628;8.994;2023-09-07T07:58:11;8.20;;;4.53;;
64405;SDS011;50730;48.628;8.994;2023-09-07T08:00:38;6.90;;;4.38;;
64405;SDS011;50730;48.628;8.994;2023-09-07T08:03:06;9.18;;;4.80;;
64405;SDS011;50730;48.628;8.994;2023-09-07T08:05:34;7.85;;;4.43;;
64405;SDS011;50730;48.628;8.994;2023-09-07T08:08:06;7.07;;;4.22;;
64405;SDS011;50730;48.628;8.994;2023-09-07T08:10:33;9.70;;;4.38;;
64405;SDS011;50730;48.628;8.994;2023-09-07T08:13:01;7.32;;;3.72;;
64405;SDS011;50730;48.628;8.994;2023-09-07T08:15:29;8.07;;;4.38;;
64405;SDS011;50730;48.628;8.994;2023-09-07T08:17:56;6.10;;;4.22;;
64405;SDS011;50730;48.628;8.994;2023-09-07T08:20:24;6.00;;;4.13;;
64405;SDS011;50730;48.628;8.994;2023-09-07T08:22:51;6.32;;;3.92;;
64405;SDS011;50730;48.628;8.994;2023-09-07T08:25:20;5.25;;;3.88;;
64405;SDS011;50730;48.628;8.994;2023-09-07T08:27:48;8.95;;;4.38;;
64405;SDS011;50730;48.628;8.994;2023-09-07T08:30:16;5.53;;;3.60;;
64405;SDS011;50730;48.628;8.994;2023-09-07T08:32:43;7.45;;;4.20;;
64405;SDS011;50730;48.628;8.994;2023-09-07T08:35:11;7.68;;;3.60;;
64405;SDS011;50730;48.628;8.994;2023-09-07T08:37:39;6.40;;;3.63;;
64405;SDS011;50730;48.628;8.994;2023-09-07T08:40:06;5.72;;;3.45;;
64405;SDS011;50730;48.628;8.994;2023-09-07T08:42:36;7.05;;;3.35;;
64405;SDS011;50730;48.628;8.994;2023-09-07T08:45:04;5.25;;;3.10;;
64405;SDS011;50730;48.628;8.994;2023-09-07T08:47:33;3.60;;;2.90;;
64405;SDS011;50730;48.628;8.994;2023-09-07T08:52:43;5.78;;;3.22;;
64405;SDS011;50730;48.628;8.994;2023-09-07T08:55:16;4.15;;;3.30;;
64405;SDS011;50730;48.628;8.994;2023-09-07T08:57:45;4.45;;;2.80;;
64405;SDS011;50730;48.628;8.994;2023-09-07T09:00:12;3.90;;;2.80;;
64405;SDS011;50730;48.628;8.994;2023-09-07T09:02:41;5.22;;;2.80;;
64405;SDS011;50730;48.628;8.994;2023-09-07T09:05:08;4.40;;;3.08;;
64405;SDS011;50730;48.628;8.994;2023-09-07T09:07:36;4.80;;;2.83;;
64405;SDS011;50730;48.628;8.994;2023-09-07T09:10:04;3.42;;;2.72;;
64405;SDS011;50730;48.628;8.994;2023-09-07T09:12:31;4.70;;;3.05;;
64405;SDS011;50730;48.628;8.994;2023-09-07T09:15:00;4.15;;;2.90;;
64405;SDS011;50730;48.628;8.994;2023-09-07T09:17:28;4.35;;;3.00;;
64405;SDS011;50730;48.628;8.994;2023-09-07T09:19:55;3.63;;;2.67;;
64405;SDS011;50730;48.628;8.994;2023-09-07T09:22:22;4.32;;;2.72;;
64405;SDS011;50730;48.628;8.994;2023-09-07T09:24:50;5.80;;;3.00;;
64405;SDS011;50730;48.628;8.994;2023-09-07T09:27:17;4.68;;;3.30;;
64405;SDS011;50730;48.628;8.994;2023-09-07T09:29:44;4.00;;;2.80;;
64405;SDS011;50730;48.628;8.994;2023-09-07T09:32:13;6.75;;;2.95;;
64405;SDS011;50730;48.628;8.994;2023-09-07T09:34:43;3.10;;;2.80;;
64405;SDS011;50730;48.628;8.994;2023-09-07T09:37:12;5.60;;;3.10;;
64405;SDS011;50730;48.628;8.994;2023-09-07T09:39:40;3.60;;;2.67;;
64405;SDS011;50730;48.628;8.994;2023-09-07T09:42:08;5.20;;;2.30;;
64405;SDS011;50730;48.628;8.994;2023-09-07T09:44:36;3.92;;;2.75;;
64405;SDS011;50730;48.628;8.994;2023-09-07T09:47:04;4.30;;;2.97;;
64405;SDS011;50730;48.628;8.994;2023-09-07T09:49:33;4.47;;;3.30;;
64405;SDS011;50730;48.628;8.994;2023-09-07T09:52:01;6.00;;;3.00;;
64405;SDS011;50730;48.628;8.994;2023-09-07T09:54:29;3.85;;;2.80;;
64405;SDS011;50730;48.628;8.994;2023-09-07T09:56:57;3.92;;;2.83;;
64405;SDS011;50730;48.628;8.994;2023-09-07T09:59:24;4.85;;;2.40;;
64405;SDS011;50730;48.628;8.994;2023-09-07T10:01:51;5.53;;;2.70;;
64405;SDS011;50730;48.628;8.994;2023-09-07T10:04:19;3.15;;;2.50;;
64405;SDS011;50730;48.628;8.994;2023-09-07T10:06:55;3.15;;;2.75;;
64405;SDS011;50730;48.628;8.994;2023-09-07T10:11:52;5.38;;;2.53;;
64405;SDS011;50730;48.628;8.994;2023-09-07T10:14:20;3.63;;;2.45;;
64405;SDS011;50730;48.628;8.994;2023-09-07T10:16:48;7.57;;;2.88;;
64405;SDS011;50730;48.628;8.994;2023-09-07T10:19:17;4.68;;;2.58;;
64405;SDS011;50730;48.628;8.994;2023-09-07T10:21:44;4.88;;;2.88;;
64405;SDS011;50730;48.628;8.994;2023-09-07T10:24:14;4.47;;;2.50;;
64405;SDS011;50730;48.628;8.994;2023-09-07T10:26:55;3.85;;;2.42;;
64405;SDS011;50730;48.628;8.994;2023-09-07T10:29:22;3.42;;;2.70;;
64405;SDS011;50730;48.628;8.994;2023-09-07T10:31:50;3.28;;;2.60;;
64405;SDS011;50730;48.628;8.994;2023-09-07T10:34:17;6.28;;;2.80;;
64405;SDS011;50730;48.628;8.994;2023-09-07T10:36:46;5.40;;;3.08;;
64405;SDS011;50730;48.628;8.994;2023-09-07T10:39:17;6.50;;;3.38;;
64405;SDS011;50730;48.628;8.994;2023-09-07T10:41:45;6.78;;;5.50;;
64405;SDS011;50730;48.628;8.994;2023-09-07T10:44:13;3.20;;;2.67;;
64405;SDS011;50730;48.628;8.994;2023-09-07T10:46:40;4.68;;;2.83;;
64405;SDS011;50730;48.628;8.994;2023-09-07T10:49:08;4.63;;;2.90;;
64405;SDS011;50730;48.628;8.994;2023-09-07T10:51:40;6.25;;;2.70;;
64405;SDS011;50730;48.628;8.994;2023-09-07T10:54:13;4.90;;;2.95;;
64405;SDS011;50730;48.628;8.994;2023-09-07T10:56:42;4.32;;;2.83;;
64405;SDS011;50730;48.628;8.994;2023-09-07T10:59:10;3.05;;;2.60;;
64405;SDS011;50730;48.628;8.994;2023-09-07T11:01:37;3.83;;;2.70;;
64405;SDS011;50730;48.628;8.994;2023-09-07T11:04:04;4.60;;;3.05;;
64405;SDS011;50730;48.628;8.994;2023-09-07T11:06:33;4.28;;;3.00;;
64405;SDS011;50730;48.628;8.994;2023-09-07T11:09:01;3.47;;;2.63;;
64405;SDS011;50730;48.628;8.994;2023-09-07T11:11:31;4.15;;;3.10;;
64405;SDS011;50730;48.628;8.994;2023-09-07T11:14:01;7.00;;;2.95;;
64405;SDS011;50730;48.628;8.994;2023-09-07T11:16:28;3.22;;;2.80;;
64405;SDS011;50730;48.628;8.994;2023-09-07T11:18:55;3.80;;;2.90;;
64405;SDS011;50730;48.628;8.994;2023-09-07T11:21:25;6.68;;;3.53;;
64405;SDS011;50730;48.628;8.994;2023-09-07T11:23:52;4.85;;;3.22;;
64405;SDS011;50730;48.628;8.994;2023-09-07T11:26:19;5.35;;;3.38;;
64405;SDS011;50730;48.628;8.994;2023-09-07T11:28:48;8.23;;;3.45;;
64405;SDS011;50730;48.628;8.994;2023-09-07T11:31:19;3.30;;;2.67;;
64405;SDS011;50730;48.628;8.994;2023-09-07T11:33:47;5.22;;;3.33;;
64405;SDS011;50730;48.628;8.994;2023-09-07T11:36:14;3.75;;;3.03;;
64405;SDS011;50730;48.628;8.994;2023-09-07T11:38:42;5.28;;;3.30;;
64405;SDS011;50730;48.628;8.994;2023-09-07T11:41:10;4.38;;;3.33;;
64405;SDS011;50730;48.628;8.994;2023-09-07T11:43:38;3.50;;;2.97;;
64405;SDS011;50730;48.628;8.994;2023-09-07T11:46:07;3.47;;;3.03;;
64405;SDS011;50730;48.628;8.994;2023-09-07T11:48:36;6.38;;;3.10;;
64405;SDS011;50730;48.628;8.994;2023-09-07T11:51:03;6.25;;;3.35;;
64405;SDS011;50730;48.628;8.994;2023-09-07T11:53:30;6.72;;;3.25;;
64405;SDS011;50730;48.628;8.994;2023-09-07T11:55:57;4.55;;;3.22;;
64405;SDS011;50730;48.628;8.994;2023-09-07T11:58:24;4.32;;;2.92;;
64405;SDS011;50730;48.628;8.994;2023-09-07T12:00:52;4.47;;;3.00;;
64405;SDS011;50730;48.628;8.994;2023-09-07T12:03:20;4.07;;;3.35;;
64405;SDS011;50730;48.628;8.994;2023-09-07T12:05:48;4.50;;;3.17;;
64405;SDS011;50730;48.628;8.994;2023-09-07T12:08:15;4.63;;;3.17;;
64405;SDS011;50730;48.628;8.994;2023-09-07T12:10:42;4.07;;;3.10;;
64405;SDS011;50730;48.628;8.994;2023-09-07T12:13:10;7.50;;;3.70;;
64405;SDS011;50730;48.628;8.994;2023-09-07T12:15:37;5.25;;;2.95;;
64405;SDS011;50730;48.628;8.994;2023-09-07T12:18:04;3.65;;;3.00;;
64405;SDS011;50730;48.628;8.994;2023-09-07T12:20:32;5.05;;;2.80;;
64405;SDS011;50730;48.628;8.994;2023-09-07T12:23:01;3.60;;;2.75;;
64405;SDS011;50730;48.628;8.994;2023-09-07T12:25:28;3.90;;;2.80;;
64405;SDS011;50730;48.628;8.994;2023-09-07T12:27:55;5.88;;;3.00;;
64405;SDS011;50730;48.628;8.994;2023-09-07T12:30:22;4.85;;;3.00;;
64405;SDS011;50730;48.628;8.994;2023-09-07T12:35:24;6.60;;;3.10;;
64405;SDS011;50730;48.628;8.994;2023-09-07T12:37:51;7.53;;;2.92;;
64405;SDS011;50730;48.628;8.994;2023-09-07T12:40:20;3.75;;;2.92;;
64405;SDS011;50730;48.628;8.994;2023-09-07T12:42:47;4.57;;;3.20;;
64405;SDS011;50730;48.628;8.994;2023-09-07T12:45:14;4.22;;;2.83;;
64405;SDS011;50730;48.628;8.994;2023-09-07T12:47:42;6.35;;;3.15;;
64405;SDS011;50730;48.628;8.994;2023-09-07T12:50:09;7.68;;;2.80;;
64405;SDS011;50730;48.628;8.994;2023-09-07T12:52:36;4.93;;;2.72;;
64405;SDS011;50730;48.628;8.994;2023-09-07T12:55:04;5.60;;;3.13;;
64405;SDS011;50730;48.628;8.994;2023-09-07T12:57:32;4.88;;;2.70;;
64405;SDS011;50730;48.628;8.994;2023-09-07T12:59:59;4.30;;;2.85;;
64405;SDS011;50730;48.628;8.994;2023-09-07T13:02:26;5.88;;;3.13;;
64405;SDS011;50730;48.628;8.994;2023-09-07T13:04:54;5.55;;;3.10;;
64405;SDS011;50730;48.628;8.994;2023-09-07T13:07:21;3.35;;;2.45;;
64405;SDS011;50730;48.628;8.994;2023-09-07T13:09:48;6.05;;;2.85;;
64405;SDS011;50730;48.628;8.994;2023-09-07T13:12:16;3.92;;;2.92;;
64405;SDS011;50730;48.628;8.994;2023-09-07T13:14:44;4.32;;;2.63;;
64405;SDS011;50730;48.628;8.994;2023-09-07T13:17:12;4.57;;;2.53;;
64405;SDS011;50730;48.628;8.994;2023-09-07T13:19:40;4.03;;;2.47;;
64405;SDS011;50730;48.628;8.994;2023-09-07T13:22:09;3.75;;;2.75;;
64405;SDS011;50730;48.628;8.994;2023-09-07T13:24:36;5.13;;;2.65;;
64405;SDS011;50730;48.628;8.994;2023-09-07T13:27:03;4.00;;;2.58;;
64405;SDS011;50730;48.628;8.994;2023-09-07T13:29:31;5.20;;;2.40;;
64405;SDS011;50730;48.628;8.994;2023-09-07T13:31:59;5.82;;;2.50;;
64405;SDS011;50730;48.628;8.994;2023-09-07T13:34:26;4.25;;;2.50;;
64405;SDS011;50730;48.628;8.994;2023-09-07T13:36:53;4.35;;;2.47;;
64405;SDS011;50730;48.628;8.994;2023-09-07T13:39:21;4.45;;;2.70;;
64405;SDS011;50730;48.628;8.994;2023-09-07T13:41:48;3.97;;;2.60;;
64405;SDS011;50730;48.628;8.994;2023-09-07T13:44:15;3.70;;;2.40;;
64405;SDS011;50730;48.628;8.994;2023-09-07T13:46:43;5.70;;;2.50;;
64405;SDS011;50730;48.628;8.994;2023-09-07T13:49:12;3.25;;;2.40;;
64405;SDS011;50730;48.628;8.994;2023-09-07T13:51:39;4.53;;;2.20;;
64405;SDS011;50730;48.628;8.994;2023-09-07T13:54:07;4.32;;;2.58;;
64405;SDS011;50730;48.628;8.994;2023-09-07T13:56:39;3.20;;;2.03;;
64405;SDS011;50730;48.628;8.994;2023-09-07T13:59:07;4.28;;;2.20;;
64405;SDS011;50730;48.628;8.994;2023-09-07T14:01:34;3.53;;;2.33;;
64405;SDS011;50730;48.628;8.994;2023-09-07T14:04:02;4.22;;;2.10;;
64405;SDS011;50730;48.628;8.994;2023-09-07T14:06:31;4.05;;;2.72;;
64405;SDS011;50730;48.628;8.994;2023-09-07T14:08:58;3.45;;;2.10;;
64405;SDS011;50730;48.628;8.994;2023-09-07T14:11:25;3.97;;;2.03;;
64405;SDS011;50730;48.628;8.994;2023-09-07T14:13:52;3.95;;;1.90;;
64405;SDS011;50730;48.628;8.994;2023-09-07T14:16:20;7.32;;;2.15;;
64405;SDS011;50730;48.628;8.994;2023-09-07T14:18:47;3.65;;;2.05;;
64405;SDS011;50730;48.628;8.994;2023-09-07T14:21:15;3.05;;;2.10;;
64405;SDS011;50730;48.628;8.994;2023-09-07T14:23:44;2.55;;;2.08;;
64405;SDS011;50730;48.628;8.994;2023-09-07T14:26:11;5.47;;;2.50;;
64405;SDS011;50730;48.628;8.994;2023-09-07T14:28:39;3.05;;;2.30;;
64405;SDS011;50730;48.628;8.994;2023-09-07T14:31:06;2.63;;;2.10;;
64405;SDS011;50730;48.628;8.994;2023-09-07T14:33:33;2.72;;;1.92;;
64405;SDS011;50730;48.628;8.994;2023-09-07T14:38:51;3.92;;;2.13;;
64405;SDS011;50730;48.628;8.994;2023-09-07T14:41:19;2.50;;;2.00;;
64405;SDS011;50730;48.628;8.994;2023-09-07T14:43:47;4.13;;;2.17;;
64405;SDS011;50730;48.628;8.994;2023-09-07T14:46:15;8.73;;;2.20;;
64405;SDS011;50730;48.628;8.994;2023-09-07T14:48:43;4.93;;;2.00;;
64405;SDS011;50730;48.628;8.994;2023-09-07T14:51:12;3.85;;;1.92;;
64405;SDS011;50730;48.628;8.994;2023-09-07T14:53:40;3.67;;;2.00;;
64405;SDS011;50730;48.628;8.994;2023-09-07T14:56:08;2.35;;;1.95;;
64405;SDS011;50730;48.628;8.994;2023-09-07T14:58:35;3.90;;;2.38;;
64405;SDS011;50730;48.628;8.994;2023-09-07T15:01:02;3.22;;;1.98;;
64405;SDS011;50730;48.628;8.994;2023-09-07T15:03:30;5.03;;;2.03;;
64405;SDS011;50730;48.628;8.994;2023-09-07T15:05:57;2.80;;;2.10;;
64405;SDS011;50730;48.628;8.994;2023-09-07T15:08:24;6.18;;;2.30;;
64405;SDS011;50730;48.628;8.994;2023-09-07T15:10:51;2.67;;;1.90;;
64405;SDS011;50730;48.628;8.994;2023-09-07T15:13:20;2.78;;;2.00;;
64405;SDS011;50730;48.628;8.994;2023-09-07T15:15:47;3.85;;;2.10;;